Dreyfus, Kentucky
Current Conditions -  °F | °C
As of 12:35 PM on Saturday 25 Oct 2014 (Local Time) from KI39 Reporting Station
Overcast Overcast  
Wind Chill: 61°   Ceiling: 2800
Heat Index: 61°   Visibility: 10mi
Dew Point: 50°   Wind: 8mph
Humidity: 68%   Direction: 200°SSW
Pressure: 30.05"   Gusts: NA
Location:  37.7874°N, 84.1208°W
Report Text: KI39 251635Z AUTO 20007KT 10SM BKN028 OVC038 16/10 A3005 RMK AO2
Loading
Personal Weather Stations






























Interactive Weather Map
Tropical Storm Tracking
New forecast layout! Learn more

10-Day Weather Forecast

Advertisements
Track Severe Weather on mobile